ДАННЫЕ О ПОГОДЕ

СЕГОДНЯ
Time Темп. Т росы. Влаж. Направле Скорость в Wind gust Давл. 1h Prec. 24h Prec.
00:04 13 11.2 89 253 5 7.2 1025.4 0.0000 0.0000
00:14 13 11.2 89 254 4.4 7.2 1025.7 0.0000 0.0000
00:24 12.9 11.1 89 248 4.7 6.7 1025.7 0.0000 0.0000
00:34 12.9 11.1 89 250 4.4 6.9 1025.7 0.0000 0.0000
00:54 12.9 11.1 89 256 4.2 7.5 1025.7 0.0000 0.0000
01:05 12.8 11 89 247 3.9 6.1 1025.7 0.0000 0.0000
01:15 12.8 11 89 245 3.6 5.6 1025.7 0.0000 0.0000
01:24 12.8 11 89 251 3.3 5.8 1025.8 0.0000 0.0000
01:34 12.8 11 89 251 3.6 6.9 1025.9 0.0000 0.0000
01:45 12.7 10.9 89 244 3.6 6.1 1025.9 0.0000 0.0000
01:55 12.7 10.9 89 247 3.3 5.3 1026 0.0000 0.0000
02:05 12.8 11 89 249 3.6 5.6 1025.9 0.0000 0.0000
02:15 12.8 11 89 247 3.6 5.8 1025.9 0.0000 0.0000
02:25 12.8 10.9 88 249 4.2 7.2 1025.8 0.0000 0.0000
02:35 12.9 11 88 258 4.2 7.8 1025.8 0.0000 0.0000
02:45 12.9 11 88 250 3.9 5.8 1025.9 0.0000 0.0000
02:56 12.8 10.9 88 253 3.9 6.4 1025.8 0.0000 0.0000
03:05 12.8 10.9 88 254 3.6 5.3 1025.8 0.0000 0.0000
03:15 12.7 10.8 88 248 3.9 5.6 1025.8 0.0000 0.0000
03:26 12.7 10.9 89 255 3.6 7.8 1025.8 0.0000 0.0000
03:36 12.6 10.8 89 257 3.9 8.1 1025.8 0.0000 0.0000
03:46 12.5 10.7 89 258 3.3 5.3 1025.9 0.0000 0.0000
03:55 12.5 10.9 90 252 3.1 7.5 1025.9 0.0000 0.0000
04:06 12.4 10.8 90 251 3.6 7.2 1026 0.0000 0.0000
04:16 12.3 10.7 90 254 3.3 6.4 1026 0.0000 0.0000
04:26 12.3 10.9 91 251 3.1 7.2 1026.2 0.0000 0.0000
04:36 12.3 10.9 91 249 3.6 7.5 1026.2 0.0000 0.0000
04:46 12.3 10.9 91 251 3.3 6.1 1026.2 0.0000 0.0000
04:56 12.3 10.9 91 246 3.3 6.4 1026.3 0.0000 0.0000
05:06 12.4 11 91 248 3.3 6.9 1026.3 0.0000 0.0000
05:13 12.4 11 91 258 3.3 5 1026.3 0.0000 0.0000
05:22 12.4 10.8 90 252 3.1 6.4 1026.3 0.0000 0.0000
05:33 12.5 10.9 90 251 3.1 5.8 1026.4 0.0000 0.0000
05:40 12.6 11 90 258 2.5 3.3 1026.3 0.0000 0.0000
05:51 12.6 11 90 241 3.1 6.9 1026.3 0.0000 0.0000
06:01 12.7 11.1 90 250 3.1 5.3 1026.3 0.0000 0.0000
06:19 12.7 11.1 90 252 3.3 8.3 1026.3 0.0000 0.0000
06:29 12.6 11 90 251 3.3 6.7 1026.4 0.0000 0.0000
06:39 12.6 11 90 248 2.8 6.9 1026.4 0.0000 0.0000
06:50 12.6 11 90 253 3.3 5.8 1026.5 0.0000 0.0000
06:59 12.5 11.1 91 250 3.1 6.1 1026.5 0.0000 0.0000
07:09 12.5 11.1 91 261 3.3 5.6 1026.5 0.0000 0.0000
07:20 12.5 11.1 91 253 3.3 6.9 1026.6 0.0000 0.0000
07:30 12.6 11.2 91 255 3.6 7.5 1026.7 0.0000 0.0000
07:39 12.6 11.2 91 250 3.6 8.3 1026.7 0.0000 0.0000
07:49 12.6 11.2 91 251 3.6 6.7 1026.8 0.0000 0.0000
08:00 12.6 11.2 91 254 3.3 8.6 1026.9 0.0000 0.0000
08:10 12.7 11.3 91 251 3.6 7.2 1026.9 0.0000 0.0000
08:19 12.7 11.3 91 243 3.6 7.5 1027 0.0000 0.0000
08:34 12.9 11.5 91 249 3.6 8.6 1027 0.0000 0.0000
08:44 13.1 11.5 90 249 3.9 6.4 1027 0.0000 0.0000
08:54 13.3 11.5 89 250 3.9 6.7 1027.1 0.0000 0.0000
09:05 13.3 11.5 89 250 3.9 6.7 1027.1 0.0000 0.0000
09:15 13.4 11.6 89 250 3.9 6.7 1027.2 0.0000 0.0000
09:21 13.6 11.8 89 242 4.2 6.9 1027.4 0.0000 0.0000
09:55 14.4 12.1 86 232 4.4 8.9 1027.4 0.0000 0.0000
10:29 14.4 12.1 86 238 4.4 5.3 1027.4 0.0000 0.0000
10:34 14.5 12.2 86 242 3.9 5.8 1027.4 0.0000 0.0000
10:43 14.7 12.4 86 248 5 8.1 1027.4 0.0000 0.0000
10:54 14.8 12.3 85 244 4.7 8.1 1027.4 0.0000 0.0000
11:04 14.9 12.6 86 241 4.4 7.5 1027.4 0.0000 0.0000
11:14 14.9 12.4 85 232 4.2 7.5 1027.3 0.0000 0.0000
11:24 15.1 12.6 85 239 4.2 8.3 1027.3 0.0000 0.0000
11:34 15.2 12.5 84 236 4.4 7.2 1027.2 0.0000 0.0000
11:44 15.4 12.7 84 229 3.6 8.3 1027.1 0.0000 0.0000
11:54 15.8 12.9 83 186 2.8 5.8 1027 0.0000 0.0000
12:04 16 12.9 82 214 2.5 5.3 1026.9 0.0000 0.0000
12:14 15.8 12.5 81 216 3.6 10.3 1026.9 0.0000 0.0000
12:24 15.9 13 83 187 3.3 7.8 1026.7 0.0000 0.0000
12:34 16.1 12.8 81 189 3.1 5.8 1026.7 0.0000 0.0000
12:45 16 12.7 81 196 2.5 6.9 1026.6 0.0000 0.0000
12:55 15.9 12.6 81 208 3.1 5.6 1026.6 0.0000 0.0000
13:04 16 12.9 82 178 2.8 5.8 1026.5 0.0000 0.0000
13:15 16 12.7 81 193 2.8 6.1 1026.4 0.0000 0.0000
13:25 15.9 12.6 81 210 3.3 6.7 1026.3 0.0000 0.0000
13:44 16 12.9 82 170 2.8 6.9 1026.1 0.0000 0.0000
13:55 15.9 12.8 82 216 3.1 7.2 1026.1 0.0000 0.0000
14:05 15.8 12.9 83 212 3.1 6.9 1026 0.0000 0.0000
14:15 15.8 12.9 83 214 3.6 7.8 1026 0.0000 0.0000
14:25 15.8 12.7 82 224 3.9 6.9 1026 0.0000 0.0000
14:35 15.7 12.6 82 224 4.4 7.5 1026 0.0000 0.0000
14:45 15.6 12.7 83 223 4.7 8.1 1025.9 0.0000 0.0000
14:55 15.5 12.6 83 217 3.9 8.1 1025.9 0.0000 0.0000
15:06 15.5 12.8 84 212 4.2 7.8 1025.8 0.0000 0.0000
15:16 15.4 12.5 83 212 4.2 8.3 1025.7 0.0000 0.0000
15:25 15.4 12.5 83 221 4.4 8.1 1025.7 0.0000 0.0000
15:36 15.4 12.7 84 215 4.4 7.8 1025.7 0.0000 0.0000
15:46 15.3 12.6 84 221 4.4 7.2 1025.6 0.0000 0.0000
15:56 15.3 12.6 84 228 4.4 6.7 1025.4 0.0000 0.0000
16:06 15.1 12.4 84 220 4.4 7.5 1025.3 0.0000 0.0000
16:16 14.9 12.4 85 235 4.2 7.2 1025.3 0.0000 0.0000
16:26 14.6 12.3 86 236 4.2 7.2 1025.3 0.0000 0.0000
16:36 14.5 12.2 86 249 3.9 6.1 1025.2 0.0000 0.0000
16:46 14.2 11.9 86 239 3.6 5.8 1025.2 0.0000 0.0000
16:57 14 11.9 87 233 3.1 5.8 1025.2 0.0000 0.0000
17:06 13.7 11.6 87 227 3.6 7.5 1025.4 0.0000 0.0000
17:10 13.7 11.6 87 247 3.1 4.2 1025.4 0.0000 0.0000
17:19 13.5 11.4 87 236 4.4 8.6 1025.4 0.0000 0.0000
17:30 13.3 11.2 87 235 6.9 11.1 1025.4 0.0000 0.0000
17:40 13.1 11 87 232 4.7 6.9 1025.6 0.0000 0.0000

СТАТИСТИКА ЗА ДЕНЬ

2020-10-31
TЕМПЕРАТУРА
СРЕДНЯЯ
13.8
МАКСИМАЛЬНАЯ
16.1
12:34
МИНИМАЛЬНАЯ
12.3
04:16
ДАВЛЕНИЕ
СРЕДНЯЯ
1026.2
МАКСИМАЛЬНАЯ
1027.4
09:21
МИНИМАЛЬНАЯ
1025.2
16:36
ТОЧКА РОСЫ
СРЕДНЯЯ
11.7
МАКСИМАЛЬНАЯ
13.0
12:24
МИНИМАЛЬНАЯ
10.7
03:46
ВЛАЖНОСТЬ
СРЕДНЯЯ
87
МАКСИМАЛЬНАЯ
91
04:26
МИНИМАЛЬНАЯ
81
12:14
СКОРОСТЬ ВЕТРА
СРЕДНЯЯ
3.7
МАКСИМАЛЬНАЯ
6.9
17:30
WIND GUST
СРЕДНЯЯ
6.9
МАКСИМАЛЬНАЯ
11.1
17:30
НАПРАВЛЕНИЕ ВЕТРА
PREVAILING
З
48%
С
0.0
СВ
0.0
В
0.0
ЮВ
0.0
Ю
7.0
ЮЗ
45.0
З
48.0
СЗ
0.0
ОСАДКИ
КОЛИЧЕСТВО ОСАДКОВ В ЧАС
0.0
КОЛИЧЕСТВО ОСАДКОВ В ДЕНЬ
0.0
TЕМПЕРАТУРА (°C)
МИНИМАЛЬНАЯ
12.3
МАКСИМАЛЬНАЯ
16.1
СРЕДНЯЯ
13.8
ДАВЛЕНИЕ (hpa)
МИНИМАЛЬНАЯ
1025.2
МАКСИМАЛЬНАЯ
1027.4
СРЕДНЯЯ
1026.2
УСТРОЙСТВО